sensor_id;sensor_type;location;lat;lon;timestamp;temperature;humidity
14061;DHT22;7105;43.616;1.434;2022-07-22T00:01:58;26.30;99.90
14061;DHT22;7105;43.616;1.434;2022-07-22T00:04:24;26.20;99.90
14061;DHT22;7105;43.616;1.434;2022-07-22T00:06:50;26.30;99.90
14061;DHT22;7105;43.616;1.434;2022-07-22T00:09:15;26.30;99.90
14061;DHT22;7105;43.616;1.434;2022-07-22T00:11:41;26.30;99.90
14061;DHT22;7105;43.616;1.434;2022-07-22T00:14:07;26.30;99.90
14061;DHT22;7105;43.616;1.434;2022-07-22T00:16:32;26.20;99.90
14061;DHT22;7105;43.616;1.434;2022-07-22T00:18:58;26.10;99.90
14061;DHT22;7105;43.616;1.434;2022-07-22T00:21:24;26.00;99.90
14061;DHT22;7105;43.616;1.434;2022-07-22T00:23:49;25.90;99.90
14061;DHT22;7105;43.616;1.434;2022-07-22T00:26:15;26.10;99.90
14061;DHT22;7105;43.616;1.434;2022-07-22T00:28:41;26.00;99.90
14061;DHT22;7105;43.616;1.434;2022-07-22T00:31:07;26.10;99.90
14061;DHT22;7105;43.616;1.434;2022-07-22T00:33:32;26.10;99.90
14061;DHT22;7105;43.616;1.434;2022-07-22T00:35:58;26.10;99.90
14061;DHT22;7105;43.616;1.434;2022-07-22T00:38:24;26.00;99.90
14061;DHT22;7105;43.616;1.434;2022-07-22T00:40:49;25.90;99.90
14061;DHT22;7105;43.616;1.434;2022-07-22T00:43:15;25.90;99.90
14061;DHT22;7105;43.616;1.434;2022-07-22T00:45:40;25.80;99.90
14061;DHT22;7105;43.616;1.434;2022-07-22T00:48:06;25.70;99.90
14061;DHT22;7105;43.616;1.434;2022-07-22T00:50:32;25.60;99.90
14061;DHT22;7105;43.616;1.434;2022-07-22T00:52:58;25.60;99.90
14061;DHT22;7105;43.616;1.434;2022-07-22T00:55:24;25.50;99.90
14061;DHT22;7105;43.616;1.434;2022-07-22T00:57:49;25.40;99.90
14061;DHT22;7105;43.616;1.434;2022-07-22T01:00:18;25.50;99.90
14061;DHT22;7105;43.616;1.434;2022-07-22T01:02:45;25.30;99.90
14061;DHT22;7105;43.616;1.434;2022-07-22T01:05:11;25.30;99.90
14061;DHT22;7105;43.616;1.434;2022-07-22T01:07:38;25.40;99.90
14061;DHT22;7105;43.616;1.434;2022-07-22T01:10:05;25.40;99.90
14061;DHT22;7105;43.616;1.434;2022-07-22T01:12:32;25.30;99.90
14061;DHT22;7105;43.616;1.434;2022-07-22T01:14:58;25.30;99.90
14061;DHT22;7105;43.616;1.434;2022-07-22T01:17:23;25.30;99.90
14061;DHT22;7105;43.616;1.434;2022-07-22T01:19:50;25.20;99.90
14061;DHT22;7105;43.616;1.434;2022-07-22T01:22:16;25.10;99.90
14061;DHT22;7105;43.616;1.434;2022-07-22T01:24:41;25.10;99.90
14061;DHT22;7105;43.616;1.434;2022-07-22T01:27:07;25.00;99.90
14061;DHT22;7105;43.616;1.434;2022-07-22T01:29:33;24.80;99.90
14061;DHT22;7105;43.616;1.434;2022-07-22T01:31:59;24.70;99.90
14061;DHT22;7105;43.616;1.434;2022-07-22T01:34:24;24.80;99.90
14061;DHT22;7105;43.616;1.434;2022-07-22T01:36:50;24.60;99.90
14061;DHT22;7105;43.616;1.434;2022-07-22T01:39:16;24.70;99.90
14061;DHT22;7105;43.616;1.434;2022-07-22T01:41:42;24.70;99.90
14061;DHT22;7105;43.616;1.434;2022-07-22T01:44:08;24.70;99.90
14061;DHT22;7105;43.616;1.434;2022-07-22T01:46:34;24.70;99.90
14061;DHT22;7105;43.616;1.434;2022-07-22T01:48:59;24.60;99.90
14061;DHT22;7105;43.616;1.434;2022-07-22T01:51:25;24.60;99.90
14061;DHT22;7105;43.616;1.434;2022-07-22T01:53:51;24.70;99.90
14061;DHT22;7105;43.616;1.434;2022-07-22T01:56:17;24.70;99.90
14061;DHT22;7105;43.616;1.434;2022-07-22T01:58:43;24.60;99.90
14061;DHT22;7105;43.616;1.434;2022-07-22T02:01:09;24.50;99.90
14061;DHT22;7105;43.616;1.434;2022-07-22T02:03:35;24.50;99.90
14061;DHT22;7105;43.616;1.434;2022-07-22T02:06:01;24.30;99.90
14061;DHT22;7105;43.616;1.434;2022-07-22T02:08:27;24.30;99.90
14061;DHT22;7105;43.616;1.434;2022-07-22T02:10:52;24.40;99.90
14061;DHT22;7105;43.616;1.434;2022-07-22T02:13:18;24.50;99.90
14061;DHT22;7105;43.616;1.434;2022-07-22T02:15:44;24.40;99.90
14061;DHT22;7105;43.616;1.434;2022-07-22T02:18:15;24.50;99.90
14061;DHT22;7105;43.616;1.434;2022-07-22T02:20:41;24.40;99.90
14061;DHT22;7105;43.616;1.434;2022-07-22T02:23:08;24.30;99.90
14061;DHT22;7105;43.616;1.434;2022-07-22T02:25:34;24.20;99.90
14061;DHT22;7105;43.616;1.434;2022-07-22T02:28:01;24.30;99.90
14061;DHT22;7105;43.616;1.434;2022-07-22T02:30:27;24.20;99.90
14061;DHT22;7105;43.616;1.434;2022-07-22T02:32:53;24.10;99.90
14061;DHT22;7105;43.616;1.434;2022-07-22T02:35:18;24.20;99.90
14061;DHT22;7105;43.616;1.434;2022-07-22T02:37:44;24.30;99.90
14061;DHT22;7105;43.616;1.434;2022-07-22T02:40:10;24.30;99.90
14061;DHT22;7105;43.616;1.434;2022-07-22T02:42:35;24.20;99.90
14061;DHT22;7105;43.616;1.434;2022-07-22T02:45:02;24.20;99.90
14061;DHT22;7105;43.616;1.434;2022-07-22T02:47:28;24.30;99.90
14061;DHT22;7105;43.616;1.434;2022-07-22T02:49:54;24.30;99.90
14061;DHT22;7105;43.616;1.434;2022-07-22T02:52:20;24.30;99.90
14061;DHT22;7105;43.616;1.434;2022-07-22T02:54:45;24.30;99.90
14061;DHT22;7105;43.616;1.434;2022-07-22T02:57:11;24.40;99.90
14061;DHT22;7105;43.616;1.434;2022-07-22T02:59:37;24.50;99.90
14061;DHT22;7105;43.616;1.434;2022-07-22T03:02:03;24.40;99.90
14061;DHT22;7105;43.616;1.434;2022-07-22T03:04:28;24.60;99.90
14061;DHT22;7105;43.616;1.434;2022-07-22T03:06:54;24.60;99.90
14061;DHT22;7105;43.616;1.434;2022-07-22T03:09:20;24.60;99.90
14061;DHT22;7105;43.616;1.434;2022-07-22T03:11:46;24.70;99.90
14061;DHT22;7105;43.616;1.434;2022-07-22T03:14:12;24.80;99.90
14061;DHT22;7105;43.616;1.434;2022-07-22T03:16:38;24.90;99.90
14061;DHT22;7105;43.616;1.434;2022-07-22T03:19:04;24.80;99.90
14061;DHT22;7105;43.616;1.434;2022-07-22T03:21:29;24.80;99.90
14061;DHT22;7105;43.616;1.434;2022-07-22T03:23:55;24.90;99.90
14061;DHT22;7105;43.616;1.434;2022-07-22T03:26:22;24.70;99.90
14061;DHT22;7105;43.616;1.434;2022-07-22T03:28:49;24.60;99.90
14061;DHT22;7105;43.616;1.434;2022-07-22T03:31:15;24.60;99.90
14061;DHT22;7105;43.616;1.434;2022-07-22T03:33:40;24.50;99.90
14061;DHT22;7105;43.616;1.434;2022-07-22T03:36:07;24.50;99.90
14061;DHT22;7105;43.616;1.434;2022-07-22T03:38:34;24.40;99.90
14061;DHT22;7105;43.616;1.434;2022-07-22T03:41:00;24.40;99.90
14061;DHT22;7105;43.616;1.434;2022-07-22T03:43:25;24.40;99.90
14061;DHT22;7105;43.616;1.434;2022-07-22T03:45:51;24.40;99.90
14061;DHT22;7105;43.616;1.434;2022-07-22T03:48:17;24.40;99.90
14061;DHT22;7105;43.616;1.434;2022-07-22T03:50:43;24.30;99.90
14061;DHT22;7105;43.616;1.434;2022-07-22T03:53:08;24.40;99.90
14061;DHT22;7105;43.616;1.434;2022-07-22T03:55:34;24.30;99.90
14061;DHT22;7105;43.616;1.434;2022-07-22T03:58:00;24.20;99.90
14061;DHT22;7105;43.616;1.434;2022-07-22T04:00:26;24.20;99.90
14061;DHT22;7105;43.616;1.434;2022-07-22T04:02:51;24.20;99.90
14061;DHT22;7105;43.616;1.434;2022-07-22T04:05:17;24.20;99.90
14061;DHT22;7105;43.616;1.434;2022-07-22T04:07:43;24.00;99.90
14061;DHT22;7105;43.616;1.434;2022-07-22T04:10:09;23.90;99.90
14061;DHT22;7105;43.616;1.434;2022-07-22T04:12:36;23.90;99.90
14061;DHT22;7105;43.616;1.434;2022-07-22T04:15:03;23.90;99.90
14061;DHT22;7105;43.616;1.434;2022-07-22T04:17:29;23.70;99.90
14061;DHT22;7105;43.616;1.434;2022-07-22T04:19:55;23.70;99.90
14061;DHT22;7105;43.616;1.434;2022-07-22T04:22:21;23.80;99.90
14061;DHT22;7105;43.616;1.434;2022-07-22T04:24:47;23.90;99.90
14061;DHT22;7105;43.616;1.434;2022-07-22T04:27:13;23.80;99.90
14061;DHT22;7105;43.616;1.434;2022-07-22T04:29:38;23.80;99.90
14061;DHT22;7105;43.616;1.434;2022-07-22T04:32:04;23.80;99.90
14061;DHT22;7105;43.616;1.434;2022-07-22T04:34:30;23.70;99.90
14061;DHT22;7105;43.616;1.434;2022-07-22T04:36:56;23.80;99.90
14061;DHT22;7105;43.616;1.434;2022-07-22T04:39:22;23.80;99.90
14061;DHT22;7105;43.616;1.434;2022-07-22T04:41:47;24.00;99.90
14061;DHT22;7105;43.616;1.434;2022-07-22T04:44:13;24.00;99.90
14061;DHT22;7105;43.616;1.434;2022-07-22T04:46:39;24.10;99.90
14061;DHT22;7105;43.616;1.434;2022-07-22T04:49:04;24.10;99.90
14061;DHT22;7105;43.616;1.434;2022-07-22T04:51:30;24.10;99.90
14061;DHT22;7105;43.616;1.434;2022-07-22T04:53:56;24.10;99.90
14061;DHT22;7105;43.616;1.434;2022-07-22T04:56:21;24.20;99.90
14061;DHT22;7105;43.616;1.434;2022-07-22T04:58:47;24.40;99.90
14061;DHT22;7105;43.616;1.434;2022-07-22T05:01:13;24.90;99.90
14061;DHT22;7105;43.616;1.434;2022-07-22T05:03:40;25.00;99.90
14061;DHT22;7105;43.616;1.434;2022-07-22T05:06:05;25.00;99.90
14061;DHT22;7105;43.616;1.434;2022-07-22T05:08:31;25.40;99.90
14061;DHT22;7105;43.616;1.434;2022-07-22T05:10:57;25.60;99.90
14061;DHT22;7105;43.616;1.434;2022-07-22T05:13:22;25.60;99.90
14061;DHT22;7105;43.616;1.434;2022-07-22T05:15:48;25.60;99.90
14061;DHT22;7105;43.616;1.434;2022-07-22T05:18:16;25.70;99.90
14061;DHT22;7105;43.616;1.434;2022-07-22T05:20:42;26.00;99.90
14061;DHT22;7105;43.616;1.434;2022-07-22T05:23:07;26.50;99.90
14061;DHT22;7105;43.616;1.434;2022-07-22T05:25:33;26.20;99.90
14061;DHT22;7105;43.616;1.434;2022-07-22T05:27:59;26.40;99.90
14061;DHT22;7105;43.616;1.434;2022-07-22T05:30:25;27.10;99.90
14061;DHT22;7105;43.616;1.434;2022-07-22T05:32:53;27.20;99.90
14061;DHT22;7105;43.616;1.434;2022-07-22T05:35:18;27.60;99.90
14061;DHT22;7105;43.616;1.434;2022-07-22T05:37:45;27.60;99.90
14061;DHT22;7105;43.616;1.434;2022-07-22T05:40:11;27.30;99.90
14061;DHT22;7105;43.616;1.434;2022-07-22T05:42:36;28.10;99.90
14061;DHT22;7105;43.616;1.434;2022-07-22T05:45:02;29.10;99.90
14061;DHT22;7105;43.616;1.434;2022-07-22T05:47:28;29.30;99.90
14061;DHT22;7105;43.616;1.434;2022-07-22T05:49:54;29.40;99.90
14061;DHT22;7105;43.616;1.434;2022-07-22T05:52:20;28.70;99.90
14061;DHT22;7105;43.616;1.434;2022-07-22T05:54:46;28.70;99.90
14061;DHT22;7105;43.616;1.434;2022-07-22T05:57:11;28.70;99.90
14061;DHT22;7105;43.616;1.434;2022-07-22T05:59:37;30.10;99.90
14061;DHT22;7105;43.616;1.434;2022-07-22T06:02:04;30.10;99.90
14061;DHT22;7105;43.616;1.434;2022-07-22T06:04:31;30.00;99.90
14061;DHT22;7105;43.616;1.434;2022-07-22T06:06:56;29.20;99.90
14061;DHT22;7105;43.616;1.434;2022-07-22T06:09:22;29.10;99.90
14061;DHT22;7105;43.616;1.434;2022-07-22T06:11:48;30.40;99.90
14061;DHT22;7105;43.616;1.434;2022-07-22T06:14:13;31.10;99.90
14061;DHT22;7105;43.616;1.434;2022-07-22T06:16:39;30.70;99.90
14061;DHT22;7105;43.616;1.434;2022-07-22T06:19:05;30.60;99.90
14061;DHT22;7105;43.616;1.434;2022-07-22T06:21:31;30.70;99.90
14061;DHT22;7105;43.616;1.434;2022-07-22T06:23:57;30.30;99.90
14061;DHT22;7105;43.616;1.434;2022-07-22T06:26:22;30.00;99.90
14061;DHT22;7105;43.616;1.434;2022-07-22T06:28:48;31.00;99.90
14061;DHT22;7105;43.616;1.434;2022-07-22T06:31:14;29.30;99.90
14061;DHT22;7105;43.616;1.434;2022-07-22T06:33:40;26.80;99.90
14061;DHT22;7105;43.616;1.434;2022-07-22T06:36:06;28.00;99.90
14061;DHT22;7105;43.616;1.434;2022-07-22T06:38:32;30.20;99.90
14061;DHT22;7105;43.616;1.434;2022-07-22T06:40:57;30.70;99.90
14061;DHT22;7105;43.616;1.434;2022-07-22T06:43:23;31.10;99.90
14061;DHT22;7105;43.616;1.434;2022-07-22T06:45:48;32.30;99.90
14061;DHT22;7105;43.616;1.434;2022-07-22T06:48:14;32.40;99.90
14061;DHT22;7105;43.616;1.434;2022-07-22T06:50:40;32.40;99.90
14061;DHT22;7105;43.616;1.434;2022-07-22T06:53:06;29.40;99.90
14061;DHT22;7105;43.616;1.434;2022-07-22T06:55:31;27.60;99.90
14061;DHT22;7105;43.616;1.434;2022-07-22T06:57:58;26.60;99.90
14061;DHT22;7105;43.616;1.434;2022-07-22T07:00:24;26.40;99.90
14061;DHT22;7105;43.616;1.434;2022-07-22T07:02:49;30.30;99.90
14061;DHT22;7105;43.616;1.434;2022-07-22T07:05:15;31.20;99.90
14061;DHT22;7105;43.616;1.434;2022-07-22T07:07:41;31.30;99.90
14061;DHT22;7105;43.616;1.434;2022-07-22T07:10:07;30.10;99.90
14061;DHT22;7105;43.616;1.434;2022-07-22T07:12:35;30.30;99.90
14061;DHT22;7105;43.616;1.434;2022-07-22T07:15:01;27.90;99.90
14061;DHT22;7105;43.616;1.434;2022-07-22T07:17:26;29.20;99.90
14061;DHT22;7105;43.616;1.434;2022-07-22T07:19:52;32.20;99.90
14061;DHT22;7105;43.616;1.434;2022-07-22T07:22:18;32.80;99.90
14061;DHT22;7105;43.616;1.434;2022-07-22T07:24:43;33.30;99.90
14061;DHT22;7105;43.616;1.434;2022-07-22T07:27:09;33.80;99.90
14061;DHT22;7105;43.616;1.434;2022-07-22T07:29:36;33.20;99.90
14061;DHT22;7105;43.616;1.434;2022-07-22T07:32:02;33.40;99.90
14061;DHT22;7105;43.616;1.434;2022-07-22T07:34:28;33.50;99.90
14061;DHT22;7105;43.616;1.434;2022-07-22T07:36:53;35.30;99.90
14061;DHT22;7105;43.616;1.434;2022-07-22T07:39:20;35.40;99.90
14061;DHT22;7105;43.616;1.434;2022-07-22T07:41:45;35.00;99.90
14061;DHT22;7105;43.616;1.434;2022-07-22T07:44:11;33.70;99.90
14061;DHT22;7105;43.616;1.434;2022-07-22T07:46:37;35.00;99.90
14061;DHT22;7105;43.616;1.434;2022-07-22T07:49:02;35.40;99.90
14061;DHT22;7105;43.616;1.434;2022-07-22T07:51:28;35.00;99.90
14061;DHT22;7105;43.616;1.434;2022-07-22T07:53:55;34.30;99.90
14061;DHT22;7105;43.616;1.434;2022-07-22T07:56:21;33.70;99.90
14061;DHT22;7105;43.616;1.434;2022-07-22T07:58:47;32.90;99.90
14061;DHT22;7105;43.616;1.434;2022-07-22T08:01:12;34.40;99.90
14061;DHT22;7105;43.616;1.434;2022-07-22T08:03:38;35.50;99.90
14061;DHT22;7105;43.616;1.434;2022-07-22T08:06:04;36.70;99.90
14061;DHT22;7105;43.616;1.434;2022-07-22T08:08:29;35.40;99.90
14061;DHT22;7105;43.616;1.434;2022-07-22T08:10:55;35.30;99.90
14061;DHT22;7105;43.616;1.434;2022-07-22T08:13:21;35.20;99.90
14061;DHT22;7105;43.616;1.434;2022-07-22T08:15:48;36.20;99.90
14061;DHT22;7105;43.616;1.434;2022-07-22T08:18:13;34.90;99.90
14061;DHT22;7105;43.616;1.434;2022-07-22T08:20:39;35.30;99.90
14061;DHT22;7105;43.616;1.434;2022-07-22T08:23:05;35.80;99.90
14061;DHT22;7105;43.616;1.434;2022-07-22T08:25:30;35.70;99.90
14061;DHT22;7105;43.616;1.434;2022-07-22T08:27:57;32.50;99.90
14061;DHT22;7105;43.616;1.434;2022-07-22T08:30:22;32.40;99.90
14061;DHT22;7105;43.616;1.434;2022-07-22T08:32:49;32.40;99.90
14061;DHT22;7105;43.616;1.434;2022-07-22T08:35:15;34.10;99.90
14061;DHT22;7105;43.616;1.434;2022-07-22T08:37:40;35.60;99.90
14061;DHT22;7105;43.616;1.434;2022-07-22T08:40:07;37.60;99.90
14061;DHT22;7105;43.616;1.434;2022-07-22T08:42:40;35.90;99.90
14061;DHT22;7105;43.616;1.434;2022-07-22T08:45:07;37.40;99.90
14061;DHT22;7105;43.616;1.434;2022-07-22T08:47:33;37.60;99.90
14061;DHT22;7105;43.616;1.434;2022-07-22T08:50:00;35.70;99.90
14061;DHT22;7105;43.616;1.434;2022-07-22T08:52:26;37.90;99.90
14061;DHT22;7105;43.616;1.434;2022-07-22T08:54:51;36.40;99.90
14061;DHT22;7105;43.616;1.434;2022-07-22T08:57:19;35.70;99.90
14061;DHT22;7105;43.616;1.434;2022-07-22T08:59:54;36.20;99.90
14061;DHT22;7105;43.616;1.434;2022-07-22T09:02:21;35.90;99.90
14061;DHT22;7105;43.616;1.434;2022-07-22T09:05:03;35.70;99.90
14061;DHT22;7105;43.616;1.434;2022-07-22T09:07:37;35.90;99.90
14061;DHT22;7105;43.616;1.434;2022-07-22T09:10:09;35.60;99.90
14061;DHT22;7105;43.616;1.434;2022-07-22T09:12:53;34.40;99.90
14061;DHT22;7105;43.616;1.434;2022-07-22T09:17:56;31.70;99.90
14061;DHT22;7105;43.616;1.434;2022-07-22T09:20:23;32.20;99.90
14061;DHT22;7105;43.616;1.434;2022-07-22T09:22:50;31.90;99.90
14061;DHT22;7105;43.616;1.434;2022-07-22T09:25:31;31.40;99.90
14061;DHT22;7105;43.616;1.434;2022-07-22T09:28:11;31.30;99.90
14061;DHT22;7105;43.616;1.434;2022-07-22T09:33:04;31.30;99.90
14061;DHT22;7105;43.616;1.434;2022-07-22T09:35:31;31.60;99.90
14061;DHT22;7105;43.616;1.434;2022-07-22T09:38:03;31.40;99.90
14061;DHT22;7105;43.616;1.434;2022-07-22T09:40:34;30.60;99.90
14061;DHT22;7105;43.616;1.434;2022-07-22T09:43:06;30.30;99.90
14061;DHT22;7105;43.616;1.434;2022-07-22T09:45:33;31.00;99.90
14061;DHT22;7105;43.616;1.434;2022-07-22T09:48:00;30.90;99.90
14061;DHT22;7105;43.616;1.434;2022-07-22T09:50:33;30.90;99.90
14061;DHT22;7105;43.616;1.434;2022-07-22T09:53:00;30.90;99.90
14061;DHT22;7105;43.616;1.434;2022-07-22T09:55:27;30.90;99.90
14061;DHT22;7105;43.616;1.434;2022-07-22T09:57:55;30.60;99.90
14061;DHT22;7105;43.616;1.434;2022-07-22T10:00:24;30.70;99.90
14061;DHT22;7105;43.616;1.434;2022-07-22T10:05:23;31.40;99.90
14061;DHT22;7105;43.616;1.434;2022-07-22T10:07:50;30.70;99.90
14061;DHT22;7105;43.616;1.434;2022-07-22T10:10:24;30.20;99.90
14061;DHT22;7105;43.616;1.434;2022-07-22T10:12:53;30.30;99.90
14061;DHT22;7105;43.616;1.434;2022-07-22T10:15:20;30.10;99.90
14061;DHT22;7105;43.616;1.434;2022-07-22T10:17:47;30.50;99.90
14061;DHT22;7105;43.616;1.434;2022-07-22T10:20:17;30.60;99.90
14061;DHT22;7105;43.616;1.434;2022-07-22T10:22:50;30.50;99.90
14061;DHT22;7105;43.616;1.434;2022-07-22T10:25:18;30.30;99.90
14061;DHT22;7105;43.616;1.434;2022-07-22T10:27:55;29.80;99.90
14061;DHT22;7105;43.616;1.434;2022-07-22T10:30:32;29.80;99.90
14061;DHT22;7105;43.616;1.434;2022-07-22T10:38:08;30.60;99.90
14061;DHT22;7105;43.616;1.434;2022-07-22T10:40:53;30.50;99.90
14061;DHT22;7105;43.616;1.434;2022-07-22T10:46:07;30.60;99.90
14061;DHT22;7105;43.616;1.434;2022-07-22T10:54:00;31.40;99.90
14061;DHT22;7105;43.616;1.434;2022-07-22T11:01:39;30.60;99.90
14061;DHT22;7105;43.616;1.434;2022-07-22T11:04:25;30.40;99.90
14061;DHT22;7105;43.616;1.434;2022-07-22T11:06:56;30.20;99.90
14061;DHT22;7105;43.616;1.434;2022-07-22T11:09:30;30.70;99.90
14061;DHT22;7105;43.616;1.434;2022-07-22T11:11:56;30.60;99.90
14061;DHT22;7105;43.616;1.434;2022-07-22T11:14:24;30.80;99.90
14061;DHT22;7105;43.616;1.434;2022-07-22T11:16:57;30.40;99.90
14061;DHT22;7105;43.616;1.434;2022-07-22T11:19:25;31.00;99.90
14061;DHT22;7105;43.616;1.434;2022-07-22T11:21:53;30.90;99.90
14061;DHT22;7105;43.616;1.434;2022-07-22T11:24:20;30.50;99.90
14061;DHT22;7105;43.616;1.434;2022-07-22T11:26:48;30.30;99.90
14061;DHT22;7105;43.616;1.434;2022-07-22T11:31:57;29.80;99.90
14061;DHT22;7105;43.616;1.434;2022-07-22T11:34:24;29.80;99.90
14061;DHT22;7105;43.616;1.434;2022-07-22T11:36:50;30.50;99.90
14061;DHT22;7105;43.616;1.434;2022-07-22T11:39:25;30.30;99.90
14061;DHT22;7105;43.616;1.434;2022-07-22T11:41:52;30.00;99.90
14061;DHT22;7105;43.616;1.434;2022-07-22T11:44:20;29.50;99.90
14061;DHT22;7105;43.616;1.434;2022-07-22T11:46:46;29.60;99.90
14061;DHT22;7105;43.616;1.434;2022-07-22T11:49:17;29.50;99.90
14061;DHT22;7105;43.616;1.434;2022-07-22T11:51:43;30.00;99.90
14061;DHT22;7105;43.616;1.434;2022-07-22T11:54:09;30.10;99.90
14061;DHT22;7105;43.616;1.434;2022-07-22T11:56:35;29.80;99.90
14061;DHT22;7105;43.616;1.434;2022-07-22T11:59:03;29.80;99.90
14061;DHT22;7105;43.616;1.434;2022-07-22T12:01:33;30.30;99.90
14061;DHT22;7105;43.616;1.434;2022-07-22T12:04:02;29.90;99.90
14061;DHT22;7105;43.616;1.434;2022-07-22T12:06:29;30.30;99.90
14061;DHT22;7105;43.616;1.434;2022-07-22T12:11:37;30.50;99.90
14061;DHT22;7105;43.616;1.434;2022-07-22T12:14:09;30.50;99.90
14061;DHT22;7105;43.616;1.434;2022-07-22T12:16:36;29.70;99.90
14061;DHT22;7105;43.616;1.434;2022-07-22T12:19:10;30.00;99.90
14061;DHT22;7105;43.616;1.434;2022-07-22T12:22:04;30.00;99.90
14061;DHT22;7105;43.616;1.434;2022-07-22T12:24:41;30.60;99.90
14061;DHT22;7105;43.616;1.434;2022-07-22T12:27:15;30.70;99.90
14061;DHT22;7105;43.616;1.434;2022-07-22T12:29:44;30.20;99.90
14061;DHT22;7105;43.616;1.434;2022-07-22T12:32:30;29.90;99.90
14061;DHT22;7105;43.616;1.434;2022-07-22T12:35:02;29.70;99.90
14061;DHT22;7105;43.616;1.434;2022-07-22T12:37:30;30.50;99.90
14061;DHT22;7105;43.616;1.434;2022-07-22T12:40:09;31.20;99.90
14061;DHT22;7105;43.616;1.434;2022-07-22T12:42:42;31.40;99.90
14061;DHT22;7105;43.616;1.434;2022-07-22T12:45:12;31.10;99.90
14061;DHT22;7105;43.616;1.434;2022-07-22T12:52:46;30.30;99.90
14061;DHT22;7105;43.616;1.434;2022-07-22T12:55:12;30.20;99.90
14061;DHT22;7105;43.616;1.434;2022-07-22T12:57:38;31.00;99.90
14061;DHT22;7105;43.616;1.434;2022-07-22T13:00:04;31.20;99.90
14061;DHT22;7105;43.616;1.434;2022-07-22T13:02:30;30.70;99.90
14061;DHT22;7105;43.616;1.434;2022-07-22T13:04:55;31.00;99.90
14061;DHT22;7105;43.616;1.434;2022-07-22T13:07:21;30.60;99.90
14061;DHT22;7105;43.616;1.434;2022-07-22T13:09:47;30.30;99.90
14061;DHT22;7105;43.616;1.434;2022-07-22T13:12:12;30.20;99.90
14061;DHT22;7105;43.616;1.434;2022-07-22T13:14:39;30.40;99.90
14061;DHT22;7105;43.616;1.434;2022-07-22T13:17:05;30.70;99.90
14061;DHT22;7105;43.616;1.434;2022-07-22T13:19:30;30.60;99.90
14061;DHT22;7105;43.616;1.434;2022-07-22T13:21:57;30.50;99.90
14061;DHT22;7105;43.616;1.434;2022-07-22T13:24:23;30.70;99.90
14061;DHT22;7105;43.616;1.434;2022-07-22T13:26:49;31.00;99.90
14061;DHT22;7105;43.616;1.434;2022-07-22T13:29:14;30.80;99.90
14061;DHT22;7105;43.616;1.434;2022-07-22T13:31:41;30.50;99.90
14061;DHT22;7105;43.616;1.434;2022-07-22T13:34:07;30.80;99.90
14061;DHT22;7105;43.616;1.434;2022-07-22T13:36:34;30.80;99.90
14061;DHT22;7105;43.616;1.434;2022-07-22T13:39:00;30.60;99.90
14061;DHT22;7105;43.616;1.434;2022-07-22T13:41:28;31.00;99.90
14061;DHT22;7105;43.616;1.434;2022-07-22T13:43:53;31.00;99.90
14061;DHT22;7105;43.616;1.434;2022-07-22T13:46:19;30.80;99.90
14061;DHT22;7105;43.616;1.434;2022-07-22T13:48:45;30.30;99.90
14061;DHT22;7105;43.616;1.434;2022-07-22T13:51:11;30.10;99.90
14061;DHT22;7105;43.616;1.434;2022-07-22T13:53:37;30.20;99.90
14061;DHT22;7105;43.616;1.434;2022-07-22T13:56:03;30.10;99.90
14061;DHT22;7105;43.616;1.434;2022-07-22T13:58:30;30.10;99.90
14061;DHT22;7105;43.616;1.434;2022-07-22T14:00:59;30.20;99.90
14061;DHT22;7105;43.616;1.434;2022-07-22T14:03:25;30.30;99.90
14061;DHT22;7105;43.616;1.434;2022-07-22T14:05:50;30.20;99.90
14061;DHT22;7105;43.616;1.434;2022-07-22T14:08:16;30.30;99.90
14061;DHT22;7105;43.616;1.434;2022-07-22T14:10:42;30.40;99.90
14061;DHT22;7105;43.616;1.434;2022-07-22T14:13:07;30.30;99.90
14061;DHT22;7105;43.616;1.434;2022-07-22T14:15:33;30.20;99.90
14061;DHT22;7105;43.616;1.434;2022-07-22T14:17:59;29.90;99.90
14061;DHT22;7105;43.616;1.434;2022-07-22T14:20:24;30.30;99.90
14061;DHT22;7105;43.616;1.434;2022-07-22T14:22:51;30.70;99.90
14061;DHT22;7105;43.616;1.434;2022-07-22T14:25:17;30.70;99.90
14061;DHT22;7105;43.616;1.434;2022-07-22T14:27:45;31.00;99.90
14061;DHT22;7105;43.616;1.434;2022-07-22T14:30:11;30.70;99.90
14061;DHT22;7105;43.616;1.434;2022-07-22T14:32:37;30.60;99.90
14061;DHT22;7105;43.616;1.434;2022-07-22T14:35:03;30.00;99.90
14061;DHT22;7105;43.616;1.434;2022-07-22T14:37:31;30.10;99.90
14061;DHT22;7105;43.616;1.434;2022-07-22T14:39:57;30.30;99.90
14061;DHT22;7105;43.616;1.434;2022-07-22T14:42:24;30.20;99.90
14061;DHT22;7105;43.616;1.434;2022-07-22T14:44:50;29.90;99.90
14061;DHT22;7105;43.616;1.434;2022-07-22T14:47:15;29.70;99.90
14061;DHT22;7105;43.616;1.434;2022-07-22T14:49:41;29.70;99.90
14061;DHT22;7105;43.616;1.434;2022-07-22T14:52:08;29.80;99.90
14061;DHT22;7105;43.616;1.434;2022-07-22T14:54:33;29.60;99.90
14061;DHT22;7105;43.616;1.434;2022-07-22T14:56:59;29.60;99.90
14061;DHT22;7105;43.616;1.434;2022-07-22T14:59:25;30.10;99.90
14061;DHT22;7105;43.616;1.434;2022-07-22T15:01:51;30.40;99.90
14061;DHT22;7105;43.616;1.434;2022-07-22T15:04:17;30.60;99.90
14061;DHT22;7105;43.616;1.434;2022-07-22T15:06:44;30.80;99.90
14061;DHT22;7105;43.616;1.434;2022-07-22T15:09:09;30.40;99.90
14061;DHT22;7105;43.616;1.434;2022-07-22T15:11:35;30.50;99.90
14061;DHT22;7105;43.616;1.434;2022-07-22T15:14:01;30.30;99.90
14061;DHT22;7105;43.616;1.434;2022-07-22T15:16:27;30.70;99.90
14061;DHT22;7105;43.616;1.434;2022-07-22T15:18:53;30.30;99.90
14061;DHT22;7105;43.616;1.434;2022-07-22T15:21:19;30.40;99.90
14061;DHT22;7105;43.616;1.434;2022-07-22T15:23:44;30.10;99.90
14061;DHT22;7105;43.616;1.434;2022-07-22T15:26:10;30.30;99.90
14061;DHT22;7105;43.616;1.434;2022-07-22T15:28:36;30.50;99.90
14061;DHT22;7105;43.616;1.434;2022-07-22T15:31:05;30.80;99.90
14061;DHT22;7105;43.616;1.434;2022-07-22T15:33:31;30.80;99.90
14061;DHT22;7105;43.616;1.434;2022-07-22T15:35:57;30.60;99.90
14061;DHT22;7105;43.616;1.434;2022-07-22T15:38:24;30.50;99.90
14061;DHT22;7105;43.616;1.434;2022-07-22T15:40:50;30.20;99.90
14061;DHT22;7105;43.616;1.434;2022-07-22T15:43:15;30.20;99.90
14061;DHT22;7105;43.616;1.434;2022-07-22T15:45:41;30.30;99.90
14061;DHT22;7105;43.616;1.434;2022-07-22T15:48:07;30.00;99.90
14061;DHT22;7105;43.616;1.434;2022-07-22T15:50:33;30.20;99.90
14061;DHT22;7105;43.616;1.434;2022-07-22T15:52:58;30.30;99.90
14061;DHT22;7105;43.616;1.434;2022-07-22T15:55:24;30.20;99.90
14061;DHT22;7105;43.616;1.434;2022-07-22T15:57:50;30.40;99.90
14061;DHT22;7105;43.616;1.434;2022-07-22T16:00:34;30.30;99.90
14061;DHT22;7105;43.616;1.434;2022-07-22T16:03:00;30.00;99.90
14061;DHT22;7105;43.616;1.434;2022-07-22T16:05:26;30.50;99.90
14061;DHT22;7105;43.616;1.434;2022-07-22T16:07:55;30.10;99.90
14061;DHT22;7105;43.616;1.434;2022-07-22T16:10:21;30.20;99.90
14061;DHT22;7105;43.616;1.434;2022-07-22T16:12:46;30.30;99.90
14061;DHT22;7105;43.616;1.434;2022-07-22T16:15:12;30.00;99.90
14061;DHT22;7105;43.616;1.434;2022-07-22T16:17:38;30.00;99.90
14061;DHT22;7105;43.616;1.434;2022-07-22T16:20:06;29.90;99.90